createdAt,value
2022-11-17T00:02:13.332Z,12.40
2022-11-17T00:04:41.294Z,12.40
2022-11-17T00:07:09.265Z,12.40
2022-11-17T00:09:37.674Z,12.40
2022-11-17T00:12:28.409Z,12.40
2022-11-17T00:14:59.398Z,12.40
2022-11-17T00:17:27.228Z,12.40
2022-11-17T00:20:24.604Z,12.40
2022-11-17T00:22:52.475Z,12.30
2022-11-17T00:25:20.487Z,12.30
2022-11-17T00:27:48.333Z,12.30
2022-11-17T00:30:36.244Z,12.30
2022-11-17T00:33:23.538Z,12.30
2022-11-17T00:35:54.607Z,12.30
2022-11-17T00:38:22.493Z,12.30
2022-11-17T00:40:50.515Z,12.20
2022-11-17T00:43:18.339Z,12.20
2022-11-17T00:45:46.252Z,12.20
2022-11-17T00:48:14.165Z,12.10
2022-11-17T00:50:42.043Z,12.10
2022-11-17T00:53:10.198Z,12.10
2022-11-17T00:55:38.063Z,12.10
2022-11-17T00:58:07.915Z,12.10
2022-11-17T01:00:35.705Z,12.10
2022-11-17T01:03:03.566Z,12.00
2022-11-17T01:05:33.216Z,12.00
2022-11-17T01:08:01.147Z,12.00
2022-11-17T01:10:29.076Z,12.00
2022-11-17T01:12:56.934Z,11.90
2022-11-17T01:15:24.855Z,11.90
2022-11-17T01:17:52.679Z,11.90
2022-11-17T01:20:20.927Z,11.90
2022-11-17T01:22:48.721Z,11.90
2022-11-17T01:25:16.645Z,11.90
2022-11-17T01:27:44.566Z,11.90
2022-11-17T01:30:12.862Z,11.80
2022-11-17T01:32:40.912Z,11.80
2022-11-17T01:35:09.136Z,11.80
2022-11-17T01:37:37.479Z,11.80
2022-11-17T01:40:05.633Z,11.80
2022-11-17T01:42:33.615Z,11.80
2022-11-17T01:45:02.705Z,11.80
2022-11-17T01:47:37.195Z,11.70
2022-11-17T01:50:08.327Z,11.70
2022-11-17T01:52:37.314Z,11.70
2022-11-17T01:55:07.233Z,11.70
2022-11-17T01:57:39.286Z,11.80
2022-11-17T02:00:08.415Z,11.80
2022-11-17T02:02:38.033Z,11.80
2022-11-17T02:05:10.589Z,11.80
2022-11-17T02:07:39.516Z,11.80
2022-11-17T02:10:07.784Z,11.70
2022-11-17T02:12:36.652Z,11.70
2022-11-17T02:15:05.464Z,11.70
2022-11-17T02:17:43.230Z,11.70
2022-11-17T02:20:19.283Z,11.70
2022-11-17T02:22:47.605Z,11.60
2022-11-17T02:25:34.023Z,11.70
2022-11-17T02:28:13.968Z,11.60
2022-11-17T02:31:00.336Z,11.60
2022-11-17T02:33:43.175Z,11.60
2022-11-17T02:36:18.361Z,11.70
2022-11-17T02:39:04.525Z,11.70
2022-11-17T02:41:46.293Z,11.70
2022-11-17T02:44:18.185Z,11.70
2022-11-17T02:46:48.835Z,11.70
2022-11-17T02:49:20.168Z,11.80
2022-11-17T02:51:52.179Z,11.80
2022-11-17T02:54:21.631Z,11.80
2022-11-17T02:56:49.414Z,11.80
2022-11-17T02:59:18.478Z,11.80
2022-11-17T03:01:58.604Z,11.80
2022-11-17T03:04:30.734Z,11.80
2022-11-17T03:06:58.649Z,11.80
2022-11-17T03:09:49.251Z,11.80
2022-11-17T03:12:22.483Z,11.80
2022-11-17T03:14:59.774Z,11.80
2022-11-17T03:17:46.395Z,11.80
2022-11-17T03:20:18.695Z,11.80
2022-11-17T03:22:53.292Z,11.80
2022-11-17T03:25:23.398Z,11.70
2022-11-17T03:27:54.027Z,11.80
2022-11-17T03:30:23.572Z,11.80
2022-11-17T03:32:54.246Z,11.70
2022-11-17T03:35:24.810Z,11.70
2022-11-17T03:37:55.084Z,11.70
2022-11-17T03:40:25.528Z,11.70
2022-11-17T03:42:56.139Z,11.60
2022-11-17T03:45:28.350Z,11.60
2022-11-17T03:48:17.821Z,11.70
2022-11-17T03:50:54.908Z,11.60
2022-11-17T03:53:23.432Z,11.70
2022-11-17T03:56:09.505Z,11.70
2022-11-17T03:58:40.698Z,11.70
2022-11-17T04:01:09.575Z,11.70
2022-11-17T04:03:38.463Z,11.70
2022-11-17T04:06:06.674Z,11.70
2022-11-17T04:08:34.721Z,11.70
2022-11-17T04:11:21.157Z,11.70
2022-11-17T04:14:07.613Z,11.60
2022-11-17T04:16:35.500Z,11.70
2022-11-17T04:19:03.355Z,11.60
2022-11-17T04:21:31.235Z,11.60
2022-11-17T04:24:00.561Z,11.60
2022-11-17T04:26:47.058Z,11.60
2022-11-17T04:29:14.962Z,11.60
2022-11-17T04:31:42.903Z,11.60
2022-11-17T04:34:10.842Z,11.60
2022-11-17T04:36:43.647Z,11.60
2022-11-17T04:39:13.649Z,11.60
2022-11-17T04:41:54.287Z,11.60
2022-11-17T04:44:26.160Z,11.50
2022-11-17T04:46:55.265Z,11.50
2022-11-17T04:49:23.831Z,11.50
2022-11-17T04:51:52.237Z,11.50
2022-11-17T04:54:21.324Z,11.50
2022-11-17T04:56:49.395Z,11.50
2022-11-17T04:59:17.694Z,11.50
2022-11-17T05:01:45.905Z,11.50
2022-11-17T05:04:15.493Z,11.50
2022-11-17T05:06:44.630Z,11.50
2022-11-17T05:09:17.069Z,11.50
2022-11-17T05:12:07.891Z,11.50
2022-11-17T05:14:35.746Z,11.50
2022-11-17T05:17:11.178Z,11.50
2022-11-17T05:19:46.582Z,11.50
2022-11-17T05:22:34.706Z,11.50
2022-11-17T05:25:03.026Z,11.50
2022-11-17T05:27:31.023Z,11.50
2022-11-17T05:29:58.834Z,11.50
2022-11-17T05:32:27.029Z,11.50
2022-11-17T05:34:54.876Z,11.60
2022-11-17T05:37:23.057Z,11.50
2022-11-17T05:39:50.925Z,11.50
2022-11-17T05:42:19.041Z,11.60
2022-11-17T05:44:48.836Z,11.60
2022-11-17T05:47:16.852Z,11.50
2022-11-17T05:49:44.692Z,11.60
2022-11-17T05:52:12.582Z,11.60
2022-11-17T05:54:40.736Z,11.60
2022-11-17T05:57:17.191Z,11.60
2022-11-17T05:59:55.270Z,11.60
2022-11-17T06:02:26.261Z,11.60
2022-11-17T06:04:54.200Z,11.60
2022-11-17T06:07:22.255Z,11.60
2022-11-17T06:09:51.349Z,11.60
2022-11-17T06:12:19.352Z,11.70
2022-11-17T06:14:47.214Z,11.70
2022-11-17T06:17:30.199Z,11.70
2022-11-17T06:20:03.270Z,11.70
2022-11-17T06:22:31.770Z,11.70
2022-11-17T06:25:00.465Z,11.70
2022-11-17T06:27:29.489Z,11.70
2022-11-17T06:30:00.552Z,11.70
2022-11-17T06:32:28.566Z,11.70
2022-11-17T06:34:56.853Z,11.70
2022-11-17T06:37:25.097Z,11.70
2022-11-17T06:39:53.253Z,11.80
2022-11-17T06:42:41.257Z,11.80
2022-11-17T06:45:09.706Z,11.80
2022-11-17T06:47:37.667Z,11.80
2022-11-17T06:50:05.877Z,11.80
2022-11-17T06:52:34.095Z,11.80
2022-11-17T06:55:02.004Z,11.80
2022-11-17T06:57:30.205Z,11.80
2022-11-17T06:59:58.140Z,11.90
2022-11-17T07:02:26.128Z,11.90
2022-11-17T07:04:54.406Z,11.90
2022-11-17T07:07:22.344Z,11.90
2022-11-17T07:09:50.293Z,11.90
2022-11-17T07:12:18.344Z,11.90
2022-11-17T07:14:46.294Z,11.90
2022-11-17T07:17:14.254Z,11.90
2022-11-17T07:19:44.921Z,12.00
2022-11-17T07:22:12.805Z,12.00
2022-11-17T07:24:40.800Z,12.10
2022-11-17T07:27:08.784Z,12.00
2022-11-17T07:29:36.670Z,12.10
2022-11-17T07:32:04.763Z,12.10
2022-11-17T07:34:32.625Z,12.20
2022-11-17T07:37:00.596Z,12.20
2022-11-17T07:39:28.610Z,12.30
2022-11-17T07:41:56.672Z,12.40
2022-11-17T07:44:24.569Z,12.40
2022-11-17T07:46:52.584Z,12.50
2022-11-17T07:49:20.512Z,12.50
2022-11-17T07:51:48.411Z,12.60
2022-11-17T07:54:16.444Z,12.60
2022-11-17T07:56:44.616Z,12.60
2022-11-17T07:59:17.137Z,12.60
2022-11-17T08:01:48.206Z,12.60
2022-11-17T08:04:16.398Z,12.60
2022-11-17T08:06:44.522Z,12.60
2022-11-17T08:09:14.603Z,12.60
2022-11-17T08:11:42.526Z,12.60
2022-11-17T08:14:11.104Z,12.60
2022-11-17T08:16:39.010Z,12.60
2022-11-17T08:19:06.992Z,12.60
2022-11-17T08:21:36.846Z,12.60
2022-11-17T08:24:05.007Z,12.70
2022-11-17T08:26:33.219Z,12.70
2022-11-17T08:29:02.243Z,12.70
2022-11-17T08:31:30.308Z,12.70
2022-11-17T08:33:58.326Z,12.80
2022-11-17T08:36:26.528Z,12.80
2022-11-17T08:38:54.492Z,12.80
2022-11-17T08:41:22.468Z,12.90
2022-11-17T08:43:51.138Z,12.90
2022-11-17T08:46:19.269Z,12.90
2022-11-17T08:48:48.980Z,12.90
2022-11-17T08:51:20.314Z,12.80
2022-11-17T08:53:48.277Z,12.90
2022-11-17T08:56:16.339Z,12.90
2022-11-17T08:58:45.117Z,12.90
2022-11-17T09:01:16.116Z,13.00
2022-11-17T09:03:46.372Z,13.10
2022-11-17T09:06:15.576Z,13.20
2022-11-17T09:08:56.195Z,13.40
2022-11-17T09:11:25.275Z,13.50
2022-11-17T09:13:53.212Z,13.70
2022-11-17T09:16:21.234Z,13.90
2022-11-17T09:18:49.412Z,14.10
2022-11-17T09:21:17.873Z,14.30
2022-11-17T09:23:46.763Z,14.60
2022-11-17T09:26:17.258Z,14.70
2022-11-17T09:28:46.213Z,15.00
2022-11-17T09:31:21.845Z,15.40
2022-11-17T09:33:51.897Z,16.60
2022-11-17T09:36:19.986Z,17.60
2022-11-17T09:38:48.849Z,17.70
2022-11-17T09:41:16.816Z,17.70
2022-11-17T09:43:51.962Z,17.60
2022-11-17T09:46:49.279Z,18.60
2022-11-17T09:49:36.316Z,21.20
2022-11-17T09:52:11.015Z,24.60
2022-11-17T09:54:47.171Z,27.10
2022-11-17T09:57:21.733Z,28.50
2022-11-17T09:59:56.859Z,29.20
2022-11-17T10:02:25.155Z,29.60
2022-11-17T10:04:53.256Z,29.40
2022-11-17T10:07:22.878Z,29.50
2022-11-17T10:09:52.731Z,28.60
2022-11-17T10:12:34.289Z,28.80
2022-11-17T10:15:18.811Z,28.20
2022-11-17T10:17:47.688Z,28.70
2022-11-17T10:20:17.630Z,29.10
2022-11-17T10:22:46.328Z,29.30
2022-11-17T10:25:35.424Z,29.60
2022-11-17T10:28:04.215Z,29.80
2022-11-17T10:30:32.166Z,30.00
2022-11-17T10:33:02.210Z,30.40
2022-11-17T10:35:30.992Z,30.70
2022-11-17T10:38:07.079Z,31.10
2022-11-17T10:40:41.149Z,31.50
2022-11-17T10:43:13.552Z,31.70
2022-11-17T10:45:49.687Z,32.00
2022-11-17T10:48:17.753Z,32.20
2022-11-17T10:50:56.782Z,32.50
2022-11-17T10:53:30.494Z,32.60
2022-11-17T10:56:01.395Z,32.60
2022-11-17T10:58:30.419Z,32.80
2022-11-17T11:01:01.717Z,33.10
2022-11-17T11:03:34.548Z,33.20
2022-11-17T11:06:06.078Z,33.50
2022-11-17T11:08:40.519Z,33.90
2022-11-17T11:11:12.563Z,34.50
2022-11-17T11:13:51.687Z,34.60
2022-11-17T11:16:19.606Z,34.60
2022-11-17T11:18:49.327Z,34.50
2022-11-17T11:21:21.647Z,34.60
2022-11-17T11:23:50.518Z,34.70
2022-11-17T11:26:38.221Z,35.10
2022-11-17T11:29:12.400Z,35.10
2022-11-17T11:31:59.341Z,35.20
2022-11-17T11:34:27.822Z,35.30
2022-11-17T11:37:08.909Z,35.50
2022-11-17T11:39:43.249Z,35.40
2022-11-17T11:42:18.903Z,35.20
2022-11-17T11:44:52.892Z,35.20
2022-11-17T11:47:27.316Z,35.20
2022-11-17T11:50:15.761Z,35.20
2022-11-17T11:52:48.054Z,35.00
2022-11-17T11:55:21.637Z,34.80
2022-11-17T11:57:56.924Z,34.60
2022-11-17T12:00:25.126Z,34.40
2022-11-17T12:03:03.395Z,34.20
2022-11-17T12:05:40.194Z,34.10
2022-11-17T12:08:13.994Z,33.50
2022-11-17T12:11:00.551Z,33.50
2022-11-17T12:13:28.704Z,33.70
2022-11-17T12:16:19.966Z,33.60
2022-11-17T12:18:47.955Z,33.40
2022-11-17T12:21:23.795Z,33.00
2022-11-17T12:24:14.519Z,32.80
2022-11-17T12:26:42.891Z,32.90
2022-11-17T12:29:29.560Z,33.10
2022-11-17T12:32:01.875Z,33.30
2022-11-17T12:34:36.136Z,33.50
2022-11-17T12:37:16.363Z,33.50
2022-11-17T12:39:54.636Z,33.60
2022-11-17T12:42:24.766Z,33.60
2022-11-17T12:45:09.811Z,33.50
2022-11-17T12:47:39.891Z,33.50
2022-11-17T12:50:07.862Z,33.50
2022-11-17T12:52:54.698Z,33.30
2022-11-17T12:55:32.190Z,33.20
2022-11-17T12:58:19.679Z,33.00
2022-11-17T13:01:09.674Z,32.90
2022-11-17T13:03:37.832Z,33.00
2022-11-17T13:06:34.267Z,32.90
2022-11-17T13:09:00.461Z,32.20
2022-11-17T13:11:29.040Z,31.30
2022-11-17T13:14:10.804Z,30.20
2022-11-17T13:16:44.806Z,29.30
2022-11-17T13:19:29.423Z,28.40
2022-11-17T13:22:14.420Z,28.30
2022-11-17T13:24:51.290Z,28.20
2022-11-17T13:27:26.931Z,27.80
2022-11-17T13:30:13.328Z,27.40
2022-11-17T13:32:42.028Z,26.90
2022-11-17T13:35:23.727Z,26.60
2022-11-17T13:38:21.877Z,26.30
2022-11-17T13:40:51.531Z,26.10
2022-11-17T13:43:21.204Z,25.80
2022-11-17T13:45:52.071Z,25.50
2022-11-17T13:48:33.481Z,25.30
2022-11-17T13:51:20.375Z,25.10
2022-11-17T13:53:51.122Z,24.90
2022-11-17T13:56:24.270Z,24.70
2022-11-17T13:58:52.527Z,24.40
2022-11-17T14:01:25.391Z,24.20
2022-11-17T14:03:53.441Z,24.10
2022-11-17T14:06:21.346Z,23.90
2022-11-17T14:09:05.936Z,23.60
2022-11-17T14:11:33.943Z,23.30
2022-11-17T14:14:01.937Z,23.30
2022-11-17T14:16:36.719Z,23.30
2022-11-17T14:19:06.177Z,23.20
2022-11-17T14:21:34.207Z,22.90
2022-11-17T14:24:03.889Z,22.70
2022-11-17T14:26:32.182Z,22.70
2022-11-17T14:29:03.254Z,22.60
2022-11-17T14:31:31.631Z,22.50
2022-11-17T14:34:00.136Z,22.40
2022-11-17T14:36:28.250Z,22.20
2022-11-17T14:38:56.167Z,22.10
2022-11-17T14:41:24.058Z,21.90
2022-11-17T14:43:52.151Z,21.80
2022-11-17T14:46:21.544Z,21.60
2022-11-17T14:48:49.529Z,21.50
2022-11-17T14:51:17.633Z,21.40
2022-11-17T14:53:46.597Z,21.20
2022-11-17T14:56:15.684Z,21.00
2022-11-17T14:58:43.618Z,20.80
2022-11-17T15:01:13.400Z,20.70
2022-11-17T15:03:41.446Z,20.60
2022-11-17T15:06:12.071Z,20.50
2022-11-17T15:08:42.017Z,20.40
2022-11-17T15:11:14.028Z,20.30
2022-11-17T15:13:42.548Z,20.20
2022-11-17T15:16:10.971Z,20.00
2022-11-17T15:18:38.927Z,20.00
2022-11-17T15:21:08.230Z,19.90
2022-11-17T15:23:39.982Z,19.90
2022-11-17T15:26:09.437Z,19.90
2022-11-17T15:28:37.466Z,19.90
2022-11-17T15:31:09.396Z,19.80
2022-11-17T15:33:37.723Z,19.70
2022-11-17T15:36:06.000Z,19.60
2022-11-17T15:38:34.018Z,19.60
2022-11-17T15:41:01.852Z,19.40
2022-11-17T15:43:31.129Z,19.30
2022-11-17T15:46:06.497Z,19.20
2022-11-17T15:48:35.112Z,19.10
2022-11-17T15:51:05.909Z,19.10
2022-11-17T15:53:34.818Z,18.90
2022-11-17T15:56:03.807Z,18.80
2022-11-17T15:58:31.939Z,18.70
2022-11-17T16:01:16.350Z,18.60
2022-11-17T16:03:45.424Z,18.60
2022-11-17T16:06:13.326Z,18.50
2022-11-17T16:08:41.315Z,18.50
2022-11-17T16:11:10.052Z,18.40
2022-11-17T16:13:38.017Z,18.30
2022-11-17T16:16:06.308Z,18.20
2022-11-17T16:18:34.990Z,18.10
2022-11-17T16:21:04.922Z,18.10
2022-11-17T16:23:40.128Z,18.00
2022-11-17T16:26:08.503Z,17.90
2022-11-17T16:28:37.058Z,17.80
2022-11-17T16:31:14.772Z,17.80
2022-11-17T16:33:57.235Z,17.70
2022-11-17T16:36:30.001Z,17.60
2022-11-17T16:39:13.321Z,17.60
2022-11-17T16:41:43.387Z,17.40
2022-11-17T16:44:12.806Z,17.30
2022-11-17T16:46:45.308Z,17.30
2022-11-17T16:49:14.698Z,17.20
2022-11-17T16:51:53.012Z,17.30
2022-11-17T16:54:21.046Z,17.20
2022-11-17T16:56:49.117Z,17.10
2022-11-17T16:59:17.452Z,17.00
2022-11-17T17:01:45.916Z,16.90
2022-11-17T17:04:14.092Z,16.70
2022-11-17T17:06:42.840Z,16.70
2022-11-17T17:09:11.660Z,16.70
2022-11-17T17:11:39.875Z,16.60
2022-11-17T17:14:09.415Z,16.60
2022-11-17T17:16:37.872Z,16.50
2022-11-17T17:19:06.924Z,16.40
2022-11-17T17:21:37.619Z,16.40
2022-11-17T17:24:06.123Z,16.30
2022-11-17T17:26:35.329Z,16.20
2022-11-17T17:29:04.442Z,16.20
2022-11-17T17:31:36.841Z,16.20
2022-11-17T17:34:06.620Z,16.10
2022-11-17T17:36:35.015Z,16.10
2022-11-17T17:39:03.176Z,16.00
2022-11-17T17:41:32.528Z,16.00
2022-11-17T17:44:01.597Z,16.00
2022-11-17T17:46:30.175Z,16.00
2022-11-17T17:48:58.688Z,15.90
2022-11-17T17:51:27.683Z,15.80
2022-11-17T17:53:56.391Z,15.80
2022-11-17T17:56:24.338Z,15.80
2022-11-17T17:58:54.190Z,15.80
2022-11-17T18:01:29.287Z,15.80
2022-11-17T18:04:09.099Z,15.70
2022-11-17T18:06:41.453Z,15.70
2022-11-17T18:09:10.969Z,15.70
2022-11-17T18:11:46.172Z,15.70
2022-11-17T18:14:14.290Z,15.60
2022-11-17T18:16:42.154Z,15.50
2022-11-17T18:19:14.208Z,15.50
2022-11-17T18:21:42.990Z,15.50
2022-11-17T18:24:11.300Z,15.50
2022-11-17T18:26:42.415Z,15.50
2022-11-17T18:29:15.452Z,15.40
2022-11-17T18:31:46.911Z,15.40
2022-11-17T18:34:16.489Z,15.30
2022-11-17T18:36:44.744Z,15.30
2022-11-17T18:39:12.642Z,15.30
2022-11-17T18:41:40.962Z,15.20
2022-11-17T18:44:11.596Z,15.20
2022-11-17T18:46:39.593Z,15.20
2022-11-17T18:49:10.762Z,15.10
2022-11-17T18:51:39.079Z,15.10
2022-11-17T18:54:08.262Z,15.10
2022-11-17T18:56:37.063Z,15.00
2022-11-17T18:59:12.271Z,15.00
2022-11-17T19:01:41.626Z,15.00
2022-11-17T19:04:10.488Z,15.00
2022-11-17T19:06:38.467Z,14.90
2022-11-17T19:09:07.146Z,14.90
2022-11-17T19:11:35.152Z,14.90
2022-11-17T19:14:04.497Z,14.90
2022-11-17T19:16:32.979Z,14.80
2022-11-17T19:19:00.885Z,14.90
2022-11-17T19:21:29.933Z,14.80
2022-11-17T19:23:58.978Z,14.80
2022-11-17T19:26:30.982Z,14.80
2022-11-17T19:29:00.595Z,14.80
2022-11-17T19:31:28.671Z,14.70
2022-11-17T19:33:57.198Z,14.70
2022-11-17T19:36:26.695Z,14.70
2022-11-17T19:38:55.495Z,14.70
2022-11-17T19:41:24.865Z,14.70
2022-11-17T19:43:54.066Z,14.70
2022-11-17T19:46:22.653Z,14.70
2022-11-17T19:48:51.071Z,14.70
2022-11-17T19:51:20.643Z,14.60
2022-11-17T19:53:49.105Z,14.70
2022-11-17T19:56:17.125Z,14.50
2022-11-17T19:58:45.343Z,14.50
2022-11-17T20:01:21.425Z,14.50
2022-11-17T20:03:49.514Z,14.40
2022-11-17T20:06:19.132Z,14.30
2022-11-17T20:08:47.476Z,14.30
2022-11-17T20:11:20.062Z,14.20
2022-11-17T20:13:48.999Z,14.10
2022-11-17T20:16:18.438Z,14.10
2022-11-17T20:18:51.314Z,14.00
2022-11-17T20:21:19.474Z,13.90
2022-11-17T20:23:47.522Z,13.90
2022-11-17T20:26:16.701Z,13.80
2022-11-17T20:28:45.079Z,13.80
2022-11-17T20:31:14.285Z,13.70
2022-11-17T20:33:42.777Z,13.70
2022-11-17T20:36:12.265Z,13.60
2022-11-17T20:38:40.420Z,13.50
2022-11-17T20:41:08.907Z,13.50
2022-11-17T20:43:36.952Z,13.50
2022-11-17T20:46:05.007Z,13.50
2022-11-17T20:48:35.621Z,13.60
2022-11-17T20:51:05.341Z,13.50
2022-11-17T20:53:33.543Z,13.50
2022-11-17T20:56:02.859Z,13.50
2022-11-17T20:58:30.808Z,13.40
2022-11-17T21:00:59.027Z,13.40
2022-11-17T21:03:27.288Z,13.40
2022-11-17T21:05:58.788Z,13.40
2022-11-17T21:08:28.183Z,13.30
2022-11-17T21:10:57.129Z,13.20
2022-11-17T21:13:25.285Z,13.20
2022-11-17T21:16:10.283Z,13.20
2022-11-17T21:18:39.998Z,13.20
2022-11-17T21:21:09.339Z,13.30
2022-11-17T21:23:38.420Z,13.10
2022-11-17T21:26:07.194Z,13.10
2022-11-17T21:28:36.198Z,13.10
2022-11-17T21:31:08.374Z,13.00
2022-11-17T21:33:36.931Z,13.00
2022-11-17T21:36:06.072Z,12.90
2022-11-17T21:38:34.150Z,12.90
2022-11-17T21:41:03.221Z,12.90
2022-11-17T21:43:31.613Z,12.80
2022-11-17T21:46:07.196Z,12.70
2022-11-17T21:48:35.694Z,12.70
2022-11-17T21:51:07.423Z,12.70
2022-11-17T21:53:35.394Z,12.60
2022-11-17T21:56:04.101Z,12.60
2022-11-17T21:58:32.371Z,12.60
2022-11-17T22:01:06.907Z,12.50
2022-11-17T22:03:35.138Z,12.50
2022-11-17T22:06:08.059Z,12.60
2022-11-17T22:08:39.915Z,12.50
2022-11-17T22:11:09.430Z,12.50
2022-11-17T22:13:37.598Z,12.40
2022-11-17T22:16:06.959Z,12.40
2022-11-17T22:18:34.900Z,12.40
2022-11-17T22:21:02.840Z,12.30
2022-11-17T22:23:30.938Z,12.30
2022-11-17T22:25:59.992Z,12.20
2022-11-17T22:28:27.932Z,12.20
2022-11-17T22:30:56.078Z,12.10
2022-11-17T22:33:24.195Z,12.00
2022-11-17T22:35:52.318Z,12.00
2022-11-17T22:38:20.269Z,11.90
2022-11-17T22:40:48.150Z,11.90
2022-11-17T22:43:16.153Z,11.90
2022-11-17T22:45:44.102Z,11.80
2022-11-17T22:48:11.987Z,11.80
2022-11-17T22:50:39.911Z,11.70
2022-11-17T22:53:07.767Z,11.70
2022-11-17T22:55:35.852Z,11.70
2022-11-17T22:58:04.082Z,11.60
2022-11-17T23:00:32.783Z,11.50
2022-11-17T23:03:00.801Z,11.50
2022-11-17T23:05:28.893Z,11.40
2022-11-17T23:07:56.765Z,11.40
2022-11-17T23:10:24.813Z,11.40
2022-11-17T23:12:52.768Z,11.30
2022-11-17T23:15:20.881Z,11.30
2022-11-17T23:17:51.709Z,11.30
2022-11-17T23:20:19.553Z,11.30
2022-11-17T23:22:47.723Z,11.20
2022-11-17T23:25:15.677Z,11.20
2022-11-17T23:27:43.542Z,11.20
2022-11-17T23:30:11.760Z,11.10
2022-11-17T23:32:39.703Z,11.10
2022-11-17T23:35:07.874Z,11.10
2022-11-17T23:37:35.766Z,11.00
2022-11-17T23:40:03.850Z,11.00
2022-11-17T23:42:32.845Z,11.00
2022-11-17T23:45:01.487Z,11.00
2022-11-17T23:47:29.417Z,11.00
2022-11-17T23:49:57.276Z,11.00
2022-11-17T23:52:25.552Z,10.90
2022-11-17T23:54:53.527Z,10.90
2022-11-17T23:57:21.652Z,10.90
2022-11-17T23:59:49.669Z,10.90
